This is the latest recevied weather packets stored in our database for station/object K4IR. If no packets are shown the sender has not sent any weather packets the latest 10 day(s).
| Time | Temp. | Humidity | Pressure | Rain* | Wind** | Luminosity | Snow |
|---|---|---|---|---|---|---|---|
| 1778182749 | 19.44° C | 95% | 1008.7 hPa | 21.08 mm | - | 86 W/m² | - |
| 1778182148 | 20° C | 93% | 1008.9 hPa | 16.76 mm | - | 42 W/m² | - |
| 1778181547 | 21.67° C | 90% | 1009.2 hPa | 5.33 mm | - | 20 W/m² | - |
| 1778180945 | 22.22° C | 87% | 1009.3 hPa | 0 mm | - | 86 W/m² | - |
| 1778180342 | 23.33° C | 87% | 1009.1 hPa | 0 mm | - | 278 W/m² | - |
| 1778179741 | 22.78° C | 88% | 1009.3 hPa | 0 mm | - | 333 W/m² | - |
| 1778179136 | 21.67° C | 90% | 1009.6 hPa | 0 mm | - | 298 W/m² | - |
| 1778178531 | 22.22° C | 90% | 1009.7 hPa | 0 mm | - | 68 W/m² | - |
| 1778177928 | 22.22° C | 88% | 1009.8 hPa | 0 mm | - | 118 W/m² | - |
| 1778177327 | 22.22° C | 88% | 1009.9 hPa | 0 mm | - | 172 W/m² | - |
| 1778176725 | 22.22° C | 88% | 1010 hPa | 0 mm | - | 106 W/m² | - |
| 1778176120 | 22.22° C | 90% | 1010.2 hPa | 0 mm | - | 150 W/m² | - |
| 1778175521 | 21.67° C | 91% | 1010.2 hPa | 0 mm | - | 136 W/m² | - |
| 1778174919 | 21.67° C | 93% | 1010.3 hPa | 0 mm | - | 205 W/m² | - |
| 1778174318 | 21.67° C | 92% | 1010.2 hPa | 0.51 mm | - | 79 W/m² | - |
| 1778173718 | 21.67° C | 92% | 1010.6 hPa | 0 mm | - | 76 W/m² | - |
| 1778173116 | 21.67° C | 91% | 1010.9 hPa | 0.51 mm | - | 98 W/m² | - |
| 1778172514 | 21.67° C | 91% | 1011.2 hPa | 0 mm | - | 118 W/m² | - |
| 1778171914 | 21.67° C | 91% | 1011.4 hPa | 0 mm | - | 44 W/m² | - |
| 1778171313 | 21.67° C | 91% | 1010.9 hPa | 0 mm | - | 39 W/m² | - |
| 1778170712 | 22.22° C | 92% | 1010.4 hPa | 0 mm | - | 62 W/m² | - |
| 1778170111 | 21.67° C | 93% | 1010.6 hPa | 0 mm | - | 125 W/m² | - |
| 1778169509 | 21.67° C | 94% | 1010.7 hPa | 0 mm | - | 131 W/m² | - |
| 1778168907 | 21.67° C | 93% | 1011.1 hPa | 0.51 mm | - | 44 W/m² | - |
| 1778168307 | 21.67° C | 93% | 1011.6 hPa | 0 mm | - | 76 W/m² | - |
* Rain latest hour (hover to see other rain measurements)
** Current wind speed in m/s (hover to see current wind gust speed)